Time;durP1;ratioP1;P1;durP2;ratioP2;P2;SDS_P1;SDS_P2;PMS_P1;PMS_P2;Temp;Humidity;BMP_temperature;BMP_pressure;BME280_temperature;BME280_humidity;BME280_pressure;Samples;Min_cycle;Max_cycle;Signal;HPM_P1;HPM_P2
2023/07/29 17:49:49;;;;;;;9.10;5.25;;;19.50;99.90;;;;;;5070416;28;20209;-90
2023/07/29 17:52:15;;;;;;;9.45;4.30;;;19.60;99.90;;;;;;5064119;28;20649;-91
2023/07/29 17:54:42;;;;;;;7.70;3.63;;;19.80;99.90;;;;;;5061438;28;20299;-90
2023/07/29 17:57:09;;;;;;;4.97;4.00;;;19.80;99.90;;;;;;5061515;28;20621;-90
2023/07/29 17:59:36;;;;;;;5.80;3.85;;;19.90;99.90;;;;;;5059101;28;20204;-91
2023/07/29 18:02:05;;;;;;;7.35;3.10;;;20.10;99.90;;;;;;5062900;28;20690;-91
2023/07/29 18:04:31;;;;;;;9.80;5.78;;;20.00;99.90;;;;;;5055354;28;20200;-91
2023/07/29 18:06:58;;;;;;;11.50;7.88;;;20.00;99.90;;;;;;5079308;28;20600;-91
2023/07/29 18:09:25;;;;;;;10.90;9.15;;;20.00;99.90;;;;;;5124487;28;20228;-91
2023/07/29 18:11:53;;;;;;;7.82;6.38;;;20.00;99.90;;;;;;5076275;28;20227;-92
2023/07/29 18:14:22;;;;;;;12.43;5.38;;;19.90;99.90;;;;;;5056403;28;20279;-92
2023/07/29 18:16:49;;;;;;;7.75;5.30;;;19.90;99.90;;;;;;5046471;28;20197;-91
2023/07/29 18:19:21;;;;;;;7.70;5.60;;;19.80;99.90;;;;;;5052973;28;20276;-92
2023/07/29 18:21:47;;;;;;;13.35;7.38;;;19.80;99.90;;;;;;5052157;28;20279;-92
2023/07/29 18:24:14;;;;;;;14.82;8.13;;;19.80;99.90;;;;;;5044548;28;20201;-92
2023/07/29 18:26:41;;;;;;;9.30;6.60;;;19.80;99.90;;;;;;5048660;28;20205;-91
2023/07/29 18:29:08;;;;;;;17.00;12.52;;;19.90;99.90;;;;;;5055457;28;20207;-90
2023/07/29 18:31:35;;;;;;;35.92;31.98;;;19.90;99.90;;;;;;5054754;28;20565;-93
2023/07/29 18:34:01;;;;;;;26.30;23.00;;;19.90;99.90;;;;;;5048743;28;20251;-92
2023/07/29 18:36:30;;;;;;;12.52;9.95;;;19.90;99.90;;;;;;5060597;28;20308;-92
2023/07/29 18:38:57;;;;;;;12.05;7.00;;;20.00;99.90;;;;;;5059464;28;20208;-92
2023/07/29 18:41:25;;;;;;;10.18;5.88;;;20.00;99.90;;;;;;5047820;28;20649;-93
2023/07/29 18:43:57;;;;;;;11.88;6.80;;;20.00;99.90;;;;;;5044729;28;20206;-92
2023/07/29 18:46:27;;;;;;;14.00;7.70;;;20.00;99.90;;;;;;5053283;28;20634;-92
2023/07/29 18:48:54;;;;;;;11.80;8.13;;;20.00;99.90;;;;;;5050753;28;20203;-92
2023/07/29 18:51:21;;;;;;;15.63;7.50;;;19.90;99.90;;;;;;5050211;28;20322;-90
2023/07/29 18:53:49;;;;;;;16.50;9.15;;;19.80;99.90;;;;;;5048694;28;20284;-91
2023/07/29 18:56:16;;;;;;;13.32;8.43;;;19.70;99.90;;;;;;5036692;28;20790;-90
2023/07/29 18:58:43;;;;;;;39.92;18.02;;;19.70;99.90;;;;;;5032603;28;20232;-93
2023/07/29 19:01:10;;;;;;;73.72;28.85;;;19.60;99.90;;;;;;5026829;28;20280;-93
2023/07/29 19:03:37;;;;;;;20.75;10.38;;;19.50;99.90;;;;;;5028186;28;20197;-91
2023/07/29 19:06:04;;;;;;;10.18;4.88;;;19.40;99.90;;;;;;5043181;28;20243;-90
2023/07/29 19:08:31;;;;;;;15.13;6.00;;;19.40;99.90;;;;;;5035549;28;20265;-91
2023/07/29 19:11:00;;;;;;;12.25;6.03;;;19.30;99.90;;;;;;5038770;28;20662;-92
2023/07/29 19:13:26;;;;;;;10.57;6.80;;;19.30;99.90;;;;;;5028909;28;20198;-92
2023/07/29 19:15:56;;;;;;;11.82;6.93;;;19.20;99.90;;;;;;5036611;28;20248;-91
2023/07/29 19:18:23;;;;;;;13.10;7.28;;;19.20;99.90;;;;;;5020226;28;20647;-92
2023/07/29 19:20:51;;;;;;;10.30;5.68;;;19.20;99.90;;;;;;5039290;28;20220;-93
2023/07/29 19:23:18;;;;;;;12.25;6.22;;;19.20;99.90;;;;;;5028785;28;20201;-92
2023/07/29 19:25:46;;;;;;;19.10;9.35;;;19.10;99.90;;;;;;5031399;28;20622;-93
2023/07/29 19:28:14;;;;;;;17.25;13.80;;;19.10;99.90;;;;;;5028679;28;20201;-93
2023/07/29 19:30:41;;;;;;;24.00;15.85;;;19.10;99.90;;;;;;5028489;28;20225;-92
2023/07/29 19:33:09;;;;;;;21.58;11.35;;;19.00;99.90;;;;;;5032402;28;20576;-94
2023/07/29 19:35:36;;;;;;;17.77;9.05;;;19.00;99.90;;;;;;5040873;28;20758;-93
2023/07/29 19:38:11;;;;;;;15.48;8.68;;;19.00;99.90;;;;;;5033002;28;20272;-93
2023/07/29 19:40:38;;;;;;;21.63;10.13;;;19.00;99.90;;;;;;5031120;28;20681;-92
2023/07/29 19:43:05;;;;;;;32.22;12.73;;;19.00;99.90;;;;;;5027111;28;20652;-92
2023/07/29 19:45:33;;;;;;;34.70;13.55;;;18.90;99.90;;;;;;5026972;28;20312;-93
2023/07/29 19:48:03;;;;;;;57.10;14.75;;;18.90;99.90;;;;;;5035891;28;20201;-92
2023/07/29 19:50:30;;;;;;;34.13;11.40;;;18.90;99.90;;;;;;5035085;28;20787;-91
2023/07/29 19:52:57;;;;;;;43.75;11.23;;;18.90;99.90;;;;;;5029852;28;20736;-91
2023/07/29 19:55:24;;;;;;;128.15;14.13;;;18.90;99.90;;;;;;5035458;28;20301;-92
2023/07/29 19:57:51;;;;;;;117.70;11.52;;;18.90;99.90;;;;;;5034223;28;20185;-91
2023/07/29 20:00:17;;;;;;;133.75;12.95;;;18.90;99.90;;;;;;5038430;28;20737;-92
2023/07/29 20:02:46;;;;;;;89.22;13.55;;;18.90;99.90;;;;;;5039716;28;20228;-92
2023/07/29 20:05:13;;;;;;;182.02;21.13;;;18.90;99.90;;;;;;5034159;28;20700;-93
2023/07/29 20:07:39;;;;;;;239.52;23.23;;;19.00;99.90;;;;;;5031974;28;20235;-92
2023/07/29 20:10:07;;;;;;;188.68;21.83;;;18.90;99.90;;;;;;5034119;28;20568;-92
2023/07/29 20:12:34;;;;;;;130.93;18.95;;;18.90;99.90;;;;;;5027473;28;20197;-92
2023/07/29 20:15:03;;;;;;;211.85;23.27;;;18.90;99.90;;;;;;5037995;28;20200;-93
2023/07/29 20:17:30;;;;;;;135.50;18.33;;;18.90;99.90;;;;;;5031049;28;20555;-95
2023/07/29 20:19:58;;;;;;;50.03;11.82;;;19.00;99.90;;;;;;5027983;28;20724;-95
2023/07/29 20:22:25;;;;;;;76.65;11.48;;;19.00;99.90;;;;;;5029019;28;20218;-94
2023/07/29 20:24:52;;;;;;;97.03;12.80;;;19.00;99.90;;;;;;5032419;28;20197;-94
2023/07/29 20:27:19;;;;;;;111.85;14.77;;;19.10;99.90;;;;;;5037483;28;20281;-94
2023/07/29 20:29:46;;;;;;;54.20;11.45;;;19.10;99.90;;;;;;5038163;28;20282;-95
2023/07/29 20:32:12;;;;;;;51.42;10.32;;;19.10;99.90;;;;;;5035216;28;20221;-94
2023/07/29 20:34:39;;;;;;;64.40;12.30;;;19.20;99.90;;;;;;5035242;28;20200;-94
2023/07/29 20:37:08;;;;;;;48.20;12.25;;;19.20;99.90;;;;;;5024224;28;20252;-94
2023/07/29 20:39:34;;;;;;;62.35;13.60;;;19.20;99.90;;;;;;5031413;28;20204;-94
2023/07/29 20:42:02;;;;;;;57.65;12.40;;;19.20;99.90;;;;;;5036514;28;20198;-94
2023/07/29 20:44:29;;;;;;;77.70;12.30;;;19.30;99.90;;;;;;5034198;28;20566;-94
2023/07/29 20:46:56;;;;;;;173.93;18.67;;;19.30;99.90;;;;;;5028034;28;20205;-93
2023/07/29 20:49:23;;;;;;;121.80;17.13;;;19.40;99.90;;;;;;5031630;28;20202;-93
2023/07/29 20:51:50;;;;;;;231.43;22.70;;;19.50;99.90;;;;;;5030082;28;20207;-94
2023/07/29 20:54:18;;;;;;;298.05;26.65;;;19.50;99.90;;;;;;5042190;28;20193;-93
2023/07/29 20:56:45;;;;;;;212.50;20.88;;;19.50;99.90;;;;;;5031608;28;20219;-92
2023/07/29 20:59:12;;;;;;;163.35;19.05;;;19.60;99.90;;;;;;5025256;28;20645;-92
2023/07/29 21:01:39;;;;;;;340.20;29.33;;;19.60;99.90;;;;;;5033993;28;20615;-93
2023/07/29 21:04:06;;;;;;;123.90;17.20;;;19.60;99.90;;;;;;5038218;28;20221;-94
2023/07/29 21:06:32;;;;;;;98.28;16.20;;;19.70;99.90;;;;;;5035396;28;20276;-94
2023/07/29 21:08:59;;;;;;;301.35;23.90;;;19.70;99.90;;;;;;5030546;28;20569;-92
2023/07/29 21:11:27;;;;;;;272.13;22.83;;;19.70;99.90;;;;;;5028342;28;20204;-93
2023/07/29 21:13:54;;;;;;;368.92;30.80;;;19.70;99.90;;;;;;5032189;28;20216;-93
2023/07/29 21:16:21;;;;;;;244.43;22.33;;;19.70;99.90;;;;;;5029315;28;20275;-94
2023/07/29 21:18:48;;;;;;;241.88;23.67;;;19.70;99.90;;;;;;5033532;28;20664;-93
2023/07/29 21:21:16;;;;;;;242.43;23.13;;;19.80;99.90;;;;;;5030415;28;20230;-94
2023/07/29 21:23:43;;;;;;;262.60;23.20;;;19.80;99.90;;;;;;5028191;28;20194;-94
2023/07/29 21:26:09;;;;;;;190.15;19.92;;;19.80;99.90;;;;;;5025061;28;20657;-93
2023/07/29 21:28:38;;;;;;;303.83;25.58;;;19.80;99.90;;;;;;5025932;28;20237;-94
2023/07/29 21:31:04;;;;;;;345.38;28.27;;;19.80;99.90;;;;;;5030529;28;20723;-94
2023/07/29 21:33:33;;;;;;;269.52;23.05;;;19.80;99.90;;;;;;5029230;28;20224;-93
2023/07/29 21:36:00;;;;;;;119.07;15.98;;;19.80;99.90;;;;;;5033835;28;20688;-94
2023/07/29 21:38:27;;;;;;;299.33;26.17;;;19.70;99.90;;;;;;5017928;28;20202;-93
2023/07/29 21:40:53;;;;;;;205.20;21.00;;;19.70;99.90;;;;;;5031568;28;20201;-93
2023/07/29 21:43:20;;;;;;;144.15;17.95;;;19.70;99.90;;;;;;5030266;28;20225;-94
2023/07/29 21:45:49;;;;;;;272.42;25.92;;;19.70;99.90;;;;;;5028643;28;20265;-94
2023/07/29 21:48:15;;;;;;;256.92;26.67;;;19.70;99.90;;;;;;5034117;28;20272;-94
2023/07/29 21:50:42;;;;;;;280.42;27.88;;;19.70;99.90;;;;;;5021430;28;20220;-94
2023/07/29 21:53:09;;;;;;;135.82;20.70;;;19.70;99.90;;;;;;5029895;28;20217;-94
2023/07/29 21:55:39;;;;;;;154.57;21.40;;;19.70;99.90;;;;;;5028073;28;20193;-93
2023/07/29 21:58:06;;;;;;;201.93;25.88;;;19.80;99.90;;;;;;5025481;28;20237;-93
2023/07/29 22:00:34;;;;;;;131.32;23.42;;;19.80;99.90;;;;;;5030962;28;20293;-94
2023/07/29 22:03:02;;;;;;;59.15;19.67;;;19.80;99.90;;;;;;5035027;28;20204;-93
2023/07/29 22:05:29;;;;;;;93.30;23.20;;;19.80;99.90;;;;;;5038166;28;20261;-93
2023/07/29 22:07:56;;;;;;;50.85;17.63;;;19.80;99.90;;;;;;5038997;28;20205;-93
2023/07/29 22:10:22;;;;;;;45.90;18.95;;;19.80;99.90;;;;;;5031663;28;20552;-94
2023/07/29 22:12:49;;;;;;;42.63;17.65;;;19.90;99.90;;;;;;5027088;28;20606;-93
2023/07/29 22:15:16;;;;;;;37.67;16.63;;;19.80;99.90;;;;;;5030023;28;20232;-93
2023/07/29 22:17:43;;;;;;;38.30;17.75;;;19.80;99.90;;;;;;5031685;28;20305;-93
2023/07/29 22:20:12;;;;;;;38.45;16.63;;;19.80;99.90;;;;;;5036040;28;20284;-93
2023/07/29 22:22:39;;;;;;;37.10;15.98;;;19.80;99.90;;;;;;5033725;28;20225;-93
2023/07/29 22:25:07;;;;;;;43.95;16.75;;;19.80;99.90;;;;;;5028958;28;20201;-94
2023/07/29 22:27:34;;;;;;;37.88;16.75;;;19.80;99.90;;;;;;5031395;28;20305;-94
2023/07/29 22:30:01;;;;;;;47.75;17.02;;;19.80;99.90;;;;;;5029917;28;20618;-93
2023/07/29 22:32:28;;;;;;;31.98;15.93;;;19.80;99.90;;;;;;5034389;28;20293;-94
2023/07/29 22:34:54;;;;;;;37.35;16.00;;;19.80;99.90;;;;;;5036816;28;20569;-92
2023/07/29 22:37:23;;;;;;;29.83;14.35;;;19.80;99.90;;;;;;5036779;28;20244;-93
2023/07/29 22:39:49;;;;;;;32.88;14.98;;;19.90;99.90;;;;;;5035664;28;20189;-94
2023/07/29 22:42:16;;;;;;;38.03;15.27;;;19.90;99.90;;;;;;5028958;28;20201;-94
2023/07/29 22:44:43;;;;;;;38.20;16.55;;;19.90;99.90;;;;;;5032082;28;20782;-93
2023/07/29 22:47:10;;;;;;;37.30;16.20;;;19.90;99.90;;;;;;5027796;28;20189;-93
2023/07/29 22:49:38;;;;;;;29.88;15.10;;;19.90;99.90;;;;;;5032007;28;20293;-93
2023/07/29 22:52:06;;;;;;;21.10;13.35;;;19.90;99.90;;;;;;5031753;28;20219;-94
2023/07/29 22:54:34;;;;;;;23.92;12.73;;;20.00;99.90;;;;;;5032655;28;20686;-94
2023/07/29 23:00:32;;;;;;;21.27;12.50;;;19.90;99.90;;;;;;4911896;29;20241;-94
2023/07/29 23:16:03;;;;;;;23.75;12.13;;;19.60;99.90;;;;;;4916177;29;20207;-94
2023/07/29 23:21:28;;;;;;;20.58;11.25;;;19.40;99.90;;;;;;4915558;29;20259;-93
2023/07/29 23:27:26;;;;;;;25.92;12.15;;;19.20;99.90;;;;;;4913369;29;20202;-94
2023/07/29 23:30:22;;;;;;;;;;;;;;;;;;;;;
2023/07/29 23:32:57;;;;;;;23.58;11.15;;;18.90;99.90;;;;;;4965353;28;20207;-93
2023/07/29 23:35:41;;;;;;;20.73;10.27;;;18.80;99.90;;;;;;4965822;28;20196;-93
2023/07/29 23:38:41;;;;;;;27.45;11.30;;;18.70;99.90;;;;;;5018733;28;20221;-92
2023/07/29 23:45:24;;;;;;;19.58;9.52;;;18.40;99.90;;;;;;4973287;28;20227;-91
2023/07/29 23:48:19;;;;;;;28.55;10.25;;;18.40;99.90;;;;;;4971907;28;20215;-92
2023/07/29 23:54:06;;;;;;;25.05;9.73;;;18.20;99.90;;;;;;4969094;28;20193;-93
2023/07/29 23:59:49;;;;;;;26.08;9.65;;;18.10;99.90;;;;;;4955564;28;20296;-93
